createdAt,value
2018-09-20T00:00:20.906Z,101387.00
2018-09-20T00:02:23.912Z,101386.00
2018-09-20T00:04:26.885Z,101383.00
2018-09-20T00:06:30.161Z,101383.00
2018-09-20T00:08:33.168Z,101382.00
2018-09-20T00:10:36.187Z,101381.00
2018-09-20T00:12:39.395Z,101383.00
2018-09-20T00:14:44.149Z,101381.00
2018-09-20T00:16:47.130Z,101384.00
2018-09-20T00:18:50.478Z,101379.00
2018-09-20T00:20:53.443Z,101382.00
2018-09-20T00:22:56.444Z,101379.00
2018-09-20T00:24:59.614Z,101384.00
2018-09-20T00:27:02.883Z,101381.00
2018-09-20T00:29:05.975Z,101381.00
2018-09-20T00:31:09.281Z,101383.00
2018-09-20T00:33:13.233Z,101383.00
2018-09-20T00:35:16.424Z,101388.00
2018-09-20T00:37:19.667Z,101384.00
2018-09-20T00:39:23.355Z,101386.00
2018-09-20T00:41:26.316Z,101378.00
2018-09-20T00:43:29.498Z,101380.00
2018-09-20T00:45:32.472Z,101379.00
2018-09-20T00:47:35.578Z,101382.00
2018-09-20T00:49:38.813Z,101379.00
2018-09-20T00:51:43.484Z,101381.00
2018-09-20T00:53:46.487Z,101382.00
2018-09-20T00:55:49.993Z,101384.00
2018-09-20T00:57:52.955Z,101391.00
2018-09-20T00:59:56.197Z,101395.00
2018-09-20T01:01:59.612Z,101397.00
2018-09-20T01:04:02.640Z,101400.00
2018-09-20T01:06:05.911Z,101403.00
2018-09-20T01:08:08.908Z,101402.00
2018-09-20T01:10:12.720Z,101404.00
2018-09-20T01:12:15.974Z,101400.00
2018-09-20T01:14:19.056Z,101403.00
2018-09-20T01:16:22.065Z,101401.00
2018-09-20T01:18:25.246Z,101406.00
2018-09-20T01:20:28.252Z,101405.00
2018-09-20T01:22:31.230Z,101404.00
2018-09-20T01:24:34.525Z,101406.00
2018-09-20T01:26:37.552Z,101409.00
2018-09-20T01:28:40.550Z,101412.00
2018-09-20T01:30:45.320Z,101418.00
2018-09-20T01:32:48.385Z,101418.00
2018-09-20T01:34:51.418Z,101429.00
2018-09-20T01:36:54.672Z,101424.00
2018-09-20T01:38:57.682Z,101424.00
2018-09-20T01:41:00.968Z,101426.00
2018-09-20T01:43:04.280Z,101427.00
2018-09-20T01:45:07.486Z,101431.00
2018-09-20T01:47:10.567Z,101437.00
2018-09-20T01:49:15.780Z,101443.00
2018-09-20T01:51:18.992Z,101439.00
2018-09-20T01:53:22.086Z,101444.00
2018-09-20T01:55:25.354Z,101449.00
2018-09-20T01:57:28.435Z,101457.00
2018-09-20T01:59:31.788Z,101455.00
2018-09-20T02:01:34.895Z,101458.00
2018-09-20T02:03:37.989Z,101457.00
2018-09-20T02:05:43.076Z,101463.00
2018-09-20T02:07:46.166Z,101464.00
2018-09-20T02:09:49.348Z,101459.00
2018-09-20T02:11:52.711Z,101465.00
2018-09-20T02:13:55.805Z,101466.00
2018-09-20T02:15:58.854Z,101462.00
2018-09-20T02:18:02.199Z,101463.00
2018-09-20T02:20:05.337Z,101469.00
2018-09-20T02:22:08.385Z,101474.00
2018-09-20T02:24:13.524Z,101469.00
2018-09-20T02:26:16.628Z,101473.00
2018-09-20T02:28:19.664Z,101475.00
2018-09-20T02:30:22.961Z,101472.00
2018-09-20T02:32:26.032Z,101472.00
2018-09-20T02:34:29.095Z,101472.00
2018-09-20T02:36:33.018Z,101466.00
2018-09-20T02:38:36.106Z,101473.00
2018-09-20T02:40:39.192Z,101477.00
2018-09-20T02:42:44.073Z,101475.00
2018-09-20T02:44:47.215Z,101479.00
2018-09-20T02:46:50.243Z,101481.00
2018-09-20T02:48:53.518Z,101485.00
2018-09-20T02:50:56.612Z,101488.00
2018-09-20T02:52:59.661Z,101491.00
2018-09-20T02:55:03.003Z,101490.00
2018-09-20T02:57:06.087Z,101493.00
2018-09-20T02:59:09.335Z,101492.00
2018-09-20T03:01:14.398Z,101492.00
2018-09-20T03:03:17.491Z,101491.00
2018-09-20T03:05:20.548Z,101491.00
2018-09-20T03:07:23.812Z,101490.00
2018-09-20T03:09:26.868Z,101493.00
2018-09-20T03:11:29.954Z,101483.00
2018-09-20T03:13:33.383Z,101480.00
2018-09-20T03:15:36.472Z,101479.00
2018-09-20T03:17:39.534Z,101478.00
2018-09-20T03:19:44.046Z,101478.00
2018-09-20T03:21:47.134Z,101478.00
2018-09-20T03:23:50.217Z,101481.00
2018-09-20T03:25:53.549Z,101483.00
2018-09-20T03:27:56.889Z,101490.00
2018-09-20T03:30:00.035Z,101490.00
2018-09-20T03:32:03.109Z,101489.00
2018-09-20T03:34:06.515Z,101485.00
2018-09-20T03:36:09.605Z,101487.00
2018-09-20T03:38:13.490Z,101489.00
2018-09-20T03:40:16.683Z,101487.00
2018-09-20T03:42:19.644Z,101490.00
2018-09-20T03:44:22.597Z,101490.00
2018-09-20T03:46:25.823Z,101492.00
2018-09-20T03:48:28.866Z,101492.00
2018-09-20T03:50:31.855Z,101488.00
2018-09-20T03:52:35.256Z,101488.00
2018-09-20T03:54:38.228Z,101489.00
2018-09-20T03:56:42.205Z,101485.00
2018-09-20T03:58:45.393Z,101491.00
2018-09-20T04:00:48.526Z,101490.00
2018-09-20T04:02:51.526Z,101500.00
2018-09-20T04:04:54.830Z,101500.00
2018-09-20T04:06:57.806Z,101502.00
2018-09-20T04:09:00.778Z,101506.00
2018-09-20T04:11:04.117Z,101505.00
2018-09-20T04:13:07.101Z,101504.00
2018-09-20T04:15:13.017Z,101507.00
2018-09-20T04:17:16.210Z,101507.00
2018-09-20T04:19:19.212Z,101512.00
2018-09-20T04:21:28.845Z,101511.00
2018-09-20T04:23:32.134Z,101507.00
2018-09-20T04:25:35.109Z,101514.00
2018-09-20T04:27:38.089Z,101512.00
2018-09-20T04:29:42.983Z,101513.00
2018-09-20T04:31:45.976Z,101514.00
2018-09-20T04:33:49.103Z,101515.00
2018-09-20T04:35:52.426Z,101515.00
2018-09-20T04:37:55.385Z,101510.00
2018-09-20T04:39:58.408Z,101513.00
2018-09-20T04:42:01.680Z,101516.00
2018-09-20T04:44:04.697Z,101522.00
2018-09-20T04:46:07.687Z,101525.00
2018-09-20T04:48:10.904Z,101528.00
2018-09-20T04:50:18.087Z,101527.00
2018-09-20T04:52:23.223Z,101525.00
2018-09-20T04:54:26.510Z,101526.00
2018-09-20T04:56:29.622Z,101527.00
2018-09-20T04:58:32.640Z,101530.00
2018-09-20T05:00:35.829Z,101532.00
2018-09-20T05:02:38.832Z,101534.00
2018-09-20T05:04:43.451Z,101538.00
2018-09-20T05:06:46.694Z,101537.00
2018-09-20T05:08:49.706Z,101534.00
2018-09-20T05:10:52.658Z,101538.00
2018-09-20T05:12:55.915Z,101542.00
2018-09-20T05:14:58.997Z,101540.00
2018-09-20T05:17:03.189Z,101546.00
2018-09-20T05:19:06.444Z,101547.00
2018-09-20T05:21:09.463Z,101548.00
2018-09-20T05:23:13.775Z,101547.00
2018-09-20T05:25:17.036Z,101548.00
2018-09-20T05:27:19.995Z,101550.00
2018-09-20T05:29:23.084Z,101557.00
2018-09-20T05:31:26.364Z,101555.00
2018-09-20T05:33:29.394Z,101556.00
2018-09-20T05:35:36.500Z,101552.00
2018-09-20T05:37:39.675Z,101553.00
2018-09-20T05:39:44.404Z,101560.00
2018-09-20T05:41:47.366Z,101564.00
2018-09-20T05:43:50.647Z,101567.00
2018-09-20T05:45:53.649Z,101568.00
2018-09-20T05:47:56.628Z,101566.00
2018-09-20T05:49:59.876Z,101570.00
2018-09-20T05:52:02.875Z,101571.00
2018-09-20T05:54:06.095Z,101573.00
2018-09-20T05:56:09.309Z,101571.00
2018-09-20T05:58:12.947Z,101572.00
2018-09-20T06:00:15.951Z,101571.00
2018-09-20T06:02:19.102Z,101577.00
2018-09-20T06:04:22.101Z,101578.00
2018-09-20T06:06:25.088Z,101583.00
2018-09-20T06:08:28.336Z,101582.00
2018-09-20T06:10:31.320Z,101579.00
2018-09-20T06:12:34.311Z,101584.00
2018-09-20T06:14:37.635Z,101582.00
2018-09-20T06:16:40.874Z,101590.00
2018-09-20T06:18:45.748Z,101592.00
2018-09-20T06:20:48.787Z,101597.00
2018-09-20T06:22:52.076Z,101599.00
2018-09-20T06:24:55.053Z,101595.00
2018-09-20T06:26:58.024Z,101600.00
2018-09-20T06:29:01.305Z,101599.00
2018-09-20T06:31:04.313Z,101602.00
2018-09-20T06:33:07.342Z,101600.00
2018-09-20T06:35:10.521Z,101598.00
2018-09-20T06:37:15.728Z,101594.00
2018-09-20T06:39:18.676Z,101586.00
2018-09-20T06:41:21.654Z,101585.00
2018-09-20T06:43:24.818Z,101584.00
2018-09-20T06:45:27.803Z,101585.00
2018-09-20T06:47:30.769Z,101581.00
2018-09-20T06:49:33.997Z,101583.00
2018-09-20T06:51:36.960Z,101580.00
2018-09-20T06:53:39.918Z,101581.00
2018-09-20T06:55:43.721Z,101579.00
2018-09-20T06:57:46.658Z,101576.00
2018-09-20T06:59:49.623Z,101572.00
2018-09-20T07:01:54.183Z,101584.00
2018-09-20T07:03:57.256Z,101582.00
2018-09-20T07:06:00.321Z,101581.00
2018-09-20T07:08:03.557Z,101588.00
2018-09-20T07:10:06.756Z,101583.00
2018-09-20T07:12:09.840Z,101581.00
2018-09-20T07:14:15.004Z,101590.00
2018-09-20T07:16:18.056Z,101585.00
2018-09-20T07:18:21.144Z,101581.00
2018-09-20T07:20:24.418Z,101583.00
2018-09-20T07:22:27.492Z,101581.00
2018-09-20T07:24:30.662Z,101580.00
2018-09-20T07:26:34.268Z,101580.00
2018-09-20T07:28:37.337Z,101583.00
2018-09-20T07:30:40.464Z,101583.00
2018-09-20T07:32:45.638Z,101581.00
2018-09-20T07:34:48.884Z,101571.00
2018-09-20T07:36:51.964Z,101571.00
2018-09-20T07:38:55.202Z,101569.00
2018-09-20T07:40:58.295Z,101569.00
2018-09-20T07:43:01.623Z,101569.00
2018-09-20T07:45:04.772Z,101570.00
2018-09-20T07:47:07.908Z,101569.00
2018-09-20T07:49:12.635Z,101567.00
2018-09-20T07:51:15.793Z,101567.00
2018-09-20T07:53:18.898Z,101559.00
2018-09-20T07:55:22.177Z,101565.00
2018-09-20T07:57:28.465Z,101569.00
2018-09-20T07:59:31.546Z,101563.00
2018-09-20T08:01:35.040Z,101564.00
2018-09-20T08:04:19.516Z,101563.00
2018-09-20T08:06:28.649Z,101564.00
2018-09-20T08:08:31.975Z,101564.00
2018-09-20T08:10:35.005Z,101560.00
2018-09-20T08:12:37.977Z,101558.00
2018-09-20T08:14:41.496Z,101554.00
2018-09-20T08:16:44.457Z,101552.00
2018-09-20T08:18:47.449Z,101565.00
2018-09-20T08:20:50.738Z,101556.00
2018-09-20T08:22:53.739Z,101551.00
2018-09-20T08:24:56.733Z,101550.00
2018-09-20T08:26:59.987Z,101540.00
2018-09-20T08:29:02.991Z,101546.00
2018-09-20T08:31:05.996Z,101548.00
2018-09-20T08:33:09.244Z,101546.00
2018-09-20T08:35:13.658Z,101539.00
2018-09-20T08:37:16.728Z,101529.00
2018-09-20T08:39:19.874Z,101537.00
2018-09-20T08:41:26.025Z,101532.00
2018-09-20T08:43:29.015Z,101523.00
2018-09-20T08:45:48.976Z,101524.00
2018-09-20T08:47:58.894Z,101516.00
2018-09-20T08:50:02.076Z,101521.00
2018-09-20T08:52:05.510Z,101516.00
2018-09-20T08:54:08.605Z,101516.00
2018-09-20T08:56:13.733Z,101514.00
2018-09-20T08:58:17.005Z,101513.00
2018-09-20T09:00:20.241Z,101523.00
2018-09-20T09:02:23.309Z,101522.00
2018-09-20T09:04:26.765Z,101519.00
2018-09-20T09:06:29.760Z,101519.00
2018-09-20T09:08:32.740Z,101518.00
2018-09-20T09:10:36.002Z,101518.00
2018-09-20T09:12:38.981Z,101516.00
2018-09-20T09:14:43.322Z,101514.00
2018-09-20T09:16:46.568Z,101515.00
2018-09-20T09:18:49.543Z,101508.00
2018-09-20T09:20:52.525Z,101510.00
2018-09-20T09:22:55.691Z,101502.00
2018-09-20T09:24:58.659Z,101503.00
2018-09-20T09:27:01.629Z,101498.00
2018-09-20T09:29:04.929Z,101497.00
2018-09-20T09:31:07.931Z,101502.00
2018-09-20T09:33:10.913Z,101492.00
2018-09-20T09:35:15.692Z,101486.00
2018-09-20T09:37:18.850Z,101479.00
2018-09-20T09:39:21.812Z,101480.00
2018-09-20T09:41:25.054Z,101472.00
2018-09-20T09:43:28.058Z,101471.00
2018-09-20T09:45:31.035Z,101477.00
2018-09-20T09:47:34.257Z,101470.00
2018-09-20T09:49:37.244Z,101468.00
2018-09-20T09:51:40.198Z,101468.00
2018-09-20T09:53:45.271Z,101465.00
2018-09-20T09:55:48.320Z,101465.00
2018-09-20T09:57:52.957Z,101455.00
2018-09-20T09:59:56.330Z,101450.00
2018-09-20T10:01:59.346Z,101444.00
2018-09-20T10:04:02.442Z,101438.00
2018-09-20T10:06:05.780Z,101430.00
2018-09-20T10:08:08.849Z,101435.00
2018-09-20T10:10:13.555Z,101425.00
2018-09-20T10:12:16.851Z,101426.00
2018-09-20T10:14:19.903Z,101415.00
2018-09-20T10:16:23.083Z,101408.00
2018-09-20T10:18:26.422Z,101421.00
2018-09-20T10:20:29.488Z,101412.00
2018-09-20T10:22:32.539Z,101408.00
2018-09-20T10:24:35.930Z,101409.00
2018-09-20T10:26:38.969Z,101405.00
2018-09-20T10:28:43.473Z,101398.00
2018-09-20T10:30:46.729Z,101398.00
2018-09-20T10:32:50.037Z,101390.00
2018-09-20T10:34:53.105Z,101391.00
2018-09-20T10:36:56.440Z,101395.00
2018-09-20T10:38:59.572Z,101388.00
2018-09-20T10:41:02.623Z,101389.00
2018-09-20T10:43:05.904Z,101372.00
2018-09-20T10:45:09.419Z,101371.00
2018-09-20T10:47:14.588Z,101364.00
2018-09-20T10:49:17.954Z,101372.00
2018-09-20T10:51:21.015Z,101364.00
2018-09-20T10:53:24.119Z,101359.00
2018-09-20T10:55:27.468Z,101351.00
2018-09-20T10:57:30.512Z,101357.00
2018-09-20T10:59:34.187Z,101357.00
2018-09-20T11:01:37.542Z,101343.00
2018-09-20T11:03:40.585Z,101352.00
2018-09-20T11:05:45.265Z,101348.00
2018-09-20T11:07:48.656Z,101339.00
2018-09-20T11:09:51.705Z,101331.00
2018-09-20T11:11:54.969Z,101333.00
2018-09-20T11:13:58.037Z,101340.00
2018-09-20T11:16:01.047Z,101333.00
2018-09-20T11:18:04.372Z,101327.00
2018-09-20T11:20:07.481Z,101328.00
2018-09-20T11:22:10.555Z,101334.00
2018-09-20T11:24:15.472Z,101323.00
2018-09-20T11:26:18.572Z,101312.00
2018-09-20T11:28:21.619Z,101307.00
2018-09-20T11:30:24.893Z,101306.00
2018-09-20T11:32:27.963Z,101302.00
2018-09-20T11:34:31.055Z,101300.00
2018-09-20T11:36:34.457Z,101300.00
2018-09-20T11:38:37.512Z,101292.00
2018-09-20T11:40:40.791Z,101293.00
2018-09-20T11:42:45.588Z,101293.00
2018-09-20T11:44:48.629Z,101289.00
2018-09-20T11:46:51.646Z,101293.00
2018-09-20T11:48:54.875Z,101292.00
2018-09-20T11:50:57.958Z,101291.00
2018-09-20T11:53:01.036Z,101286.00
2018-09-20T11:55:04.479Z,101290.00
2018-09-20T11:57:07.528Z,101284.00
2018-09-20T11:59:10.600Z,101287.00
2018-09-20T12:01:15.583Z,101283.00
2018-09-20T12:03:18.693Z,101280.00
2018-09-20T12:05:22.113Z,101275.00
2018-09-20T12:07:25.435Z,101266.00
2018-09-20T12:09:28.485Z,101265.00
2018-09-20T12:11:31.594Z,101270.00
2018-09-20T12:13:34.860Z,101262.00
2018-09-20T12:15:37.943Z,101253.00
2018-09-20T12:17:40.995Z,101249.00
2018-09-20T12:19:44.297Z,101248.00
2018-09-20T12:21:47.365Z,101243.00
2018-09-20T12:23:50.455Z,101245.00
2018-09-20T12:25:53.846Z,101256.00
2018-09-20T12:27:56.888Z,101253.00
2018-09-20T12:30:00.206Z,101242.00
2018-09-20T12:32:03.515Z,101239.00
2018-09-20T12:34:06.567Z,101234.00
2018-09-20T12:36:09.629Z,101215.00
2018-09-20T12:38:15.193Z,101223.00
2018-09-20T12:40:18.259Z,101209.00
2018-09-20T12:42:21.337Z,101213.00
2018-09-20T12:44:24.612Z,101213.00
2018-09-20T12:46:27.695Z,101208.00
2018-09-20T12:48:30.724Z,101209.00
2018-09-20T12:50:34.056Z,101210.00
2018-09-20T12:52:37.096Z,101197.00
2018-09-20T12:54:40.159Z,101195.00
2018-09-20T12:56:43.836Z,101200.00
2018-09-20T12:58:48.741Z,101194.00
2018-09-20T13:00:51.795Z,101190.00
2018-09-20T13:02:55.111Z,101193.00
2018-09-20T13:04:58.182Z,101194.00
2018-09-20T13:07:01.209Z,101190.00
2018-09-20T13:09:07.168Z,101183.00
2018-09-20T13:11:10.259Z,101182.00
2018-09-20T13:13:14.947Z,101180.00
2018-09-20T13:15:18.199Z,101183.00
2018-09-20T13:17:21.286Z,101179.00
2018-09-20T13:19:24.304Z,101177.00
2018-09-20T13:21:27.577Z,101175.00
2018-09-20T13:23:30.893Z,101175.00
2018-09-20T13:25:33.911Z,101172.00
2018-09-20T13:27:37.220Z,101169.00
2018-09-20T13:29:40.183Z,101163.00
2018-09-20T13:31:44.425Z,101160.00
2018-09-20T13:33:47.715Z,101161.00
2018-09-20T13:35:50.693Z,101169.00
2018-09-20T13:37:53.668Z,101165.00
2018-09-20T13:39:56.943Z,101155.00
2018-09-20T13:41:59.941Z,101148.00
2018-09-20T13:44:02.906Z,101150.00
2018-09-20T13:46:06.352Z,101151.00
2018-09-20T13:48:09.355Z,101150.00
2018-09-20T13:50:13.932Z,101144.00
2018-09-20T13:52:17.203Z,101144.00
2018-09-20T13:54:20.185Z,101147.00
2018-09-20T13:56:23.199Z,101144.00
2018-09-20T13:58:26.347Z,101146.00
2018-09-20T14:00:29.342Z,101141.00
2018-09-20T14:02:32.353Z,101134.00
2018-09-20T14:04:35.489Z,101133.00
2018-09-20T14:06:38.505Z,101130.00
2018-09-20T14:08:43.071Z,101127.00
2018-09-20T14:10:46.201Z,101135.00
2018-09-20T14:12:49.198Z,101108.00
2018-09-20T14:14:52.577Z,101128.00
2018-09-20T14:16:55.553Z,101116.00
2018-09-20T14:18:58.545Z,101113.00
2018-09-20T14:21:01.750Z,101110.00
2018-09-20T14:23:04.781Z,101107.00
2018-09-20T14:25:07.801Z,101110.00
2018-09-20T14:27:10.839Z,101113.00
2018-09-20T14:29:15.984Z,101102.00
2018-09-20T14:31:19.025Z,101103.00
2018-09-20T14:33:22.009Z,101110.00
2018-09-20T14:35:25.018Z,101106.00
2018-09-20T14:37:28.096Z,101107.00
2018-09-20T14:39:31.154Z,101092.00
2018-09-20T14:41:34.454Z,101092.00
2018-09-20T14:43:37.527Z,101092.00
2018-09-20T14:45:40.537Z,101103.00
2018-09-20T14:47:45.297Z,101098.00
2018-09-20T14:49:48.277Z,101096.00
2018-09-20T14:51:51.386Z,101097.00
2018-09-20T14:53:54.860Z,101093.00
2018-09-20T14:55:57.889Z,101092.00
2018-09-20T14:58:00.881Z,101087.00
2018-09-20T15:00:03.957Z,101086.00
2018-09-20T15:02:06.953Z,101082.00
2018-09-20T15:04:10.149Z,101073.00
2018-09-20T15:06:15.229Z,101081.00
2018-09-20T15:08:18.321Z,101079.00
2018-09-20T15:10:21.199Z,101079.00
2018-09-20T15:12:24.182Z,101076.00
2018-09-20T15:14:27.165Z,101075.00
2018-09-20T15:16:30.157Z,101078.00
2018-09-20T15:18:33.264Z,101083.00
2018-09-20T15:20:36.244Z,101073.00
2018-09-20T15:22:39.241Z,101079.00
2018-09-20T15:24:44.417Z,101073.00
2018-09-20T15:26:47.405Z,101064.00
2018-09-20T15:28:50.438Z,101066.00
2018-09-20T15:30:53.521Z,101062.00
2018-09-20T15:32:56.540Z,101058.00
2018-09-20T15:34:59.579Z,101066.00
2018-09-20T15:37:02.735Z,101063.00
2018-09-20T15:39:09.401Z,101060.00
2018-09-20T15:41:14.057Z,101055.00
2018-09-20T15:43:18.041Z,101058.00
2018-09-20T15:45:21.408Z,101053.00
2018-09-20T15:47:24.468Z,101060.00
2018-09-20T15:49:27.479Z,101059.00
2018-09-20T15:51:30.849Z,101059.00
2018-09-20T15:53:33.893Z,101054.00
2018-09-20T15:55:36.949Z,101051.00
2018-09-20T15:57:40.486Z,101050.00
2018-09-20T15:59:45.566Z,101051.00
2018-09-20T16:01:49.274Z,101052.00
2018-09-20T16:03:52.534Z,101052.00
2018-09-20T16:05:55.571Z,101052.00
2018-09-20T16:07:58.568Z,101054.00
2018-09-20T16:10:01.621Z,101053.00
2018-09-20T16:12:04.714Z,101052.00
2018-09-20T16:14:08.457Z,101049.00
2018-09-20T16:16:13.160Z,101048.00
2018-09-20T16:18:16.177Z,101052.00
2018-09-20T16:20:19.349Z,101052.00
2018-09-20T16:22:22.450Z,101051.00
2018-09-20T16:24:25.533Z,101048.00
2018-09-20T16:26:28.722Z,101044.00
2018-09-20T16:28:46.362Z,101041.00
2018-09-20T16:32:13.294Z,101041.00
2018-09-20T16:35:07.289Z,101044.00
2018-09-20T16:38:56.143Z,101041.00
2018-09-20T16:41:03.086Z,101045.00
2018-09-20T16:43:06.177Z,101046.00
2018-09-20T16:45:09.158Z,101044.00
2018-09-20T16:47:13.495Z,101042.00
2018-09-20T16:49:16.556Z,101043.00
2018-09-20T16:51:19.581Z,101046.00
2018-09-20T16:53:22.930Z,101046.00
2018-09-20T16:55:25.841Z,101041.00
2018-09-20T16:57:28.858Z,101041.00
2018-09-20T16:59:31.886Z,101041.00
2018-09-20T17:01:34.890Z,101043.00
2018-09-20T17:03:37.923Z,101044.00
2018-09-20T17:05:40.994Z,101045.00
2018-09-20T17:07:45.549Z,101046.00
2018-09-20T17:09:48.613Z,101045.00
2018-09-20T17:11:51.869Z,101046.00
2018-09-20T17:13:55.019Z,101054.00
2018-09-20T17:15:58.066Z,101051.00
2018-09-20T17:18:01.243Z,101053.00
2018-09-20T17:20:04.312Z,101053.00
2018-09-20T17:22:07.400Z,101059.00
2018-09-20T17:24:10.558Z,101066.00
2018-09-20T17:26:15.203Z,101068.00
2018-09-20T17:28:19.325Z,101064.00
2018-09-20T17:30:22.451Z,101062.00
2018-09-20T17:32:25.513Z,101059.00
2018-09-20T17:34:28.886Z,101061.00
2018-09-20T17:36:32.251Z,101058.00
2018-09-20T17:38:36.567Z,101055.00
2018-09-20T17:40:42.845Z,101053.00
2018-09-20T17:42:47.312Z,101050.00
2018-09-20T17:44:50.575Z,101055.00
2018-09-20T17:46:53.639Z,101057.00
2018-09-20T17:48:56.730Z,101051.00
2018-09-20T17:51:00.471Z,101055.00
2018-09-20T17:53:04.018Z,101052.00
2018-09-20T17:55:07.806Z,101055.00
2018-09-20T17:57:13.043Z,101057.00
2018-09-20T17:59:16.051Z,101054.00
2018-09-20T18:01:19.089Z,101057.00
2018-09-20T18:03:22.093Z,101060.00
2018-09-20T18:05:26.271Z,101059.00
2018-09-20T18:07:29.277Z,101058.00
2018-09-20T18:09:32.278Z,101059.00
2018-09-20T18:11:35.351Z,101055.00
2018-09-20T18:13:38.371Z,101060.00
2018-09-20T18:15:43.425Z,101058.00
2018-09-20T18:17:46.521Z,101056.00
2018-09-20T18:19:52.859Z,101055.00
2018-09-20T18:21:55.985Z,101058.00
2018-09-20T18:23:59.003Z,101059.00
2018-09-20T18:26:02.083Z,101056.00
2018-09-20T18:28:05.172Z,101054.00
2018-09-20T18:30:08.426Z,101053.00
2018-09-20T18:32:12.809Z,101054.00
2018-09-20T18:34:15.894Z,101061.00
2018-09-20T18:36:19.018Z,101059.00
2018-09-20T18:38:22.072Z,101062.00
2018-09-20T18:40:29.159Z,101058.00
2018-09-20T18:42:32.155Z,101060.00
2018-09-20T18:44:35.225Z,101056.00
2018-09-20T18:46:38.730Z,101064.00
2018-09-20T18:48:43.721Z,101064.00
2018-09-20T18:50:46.685Z,101064.00
2018-09-20T18:52:49.922Z,101066.00
2018-09-20T18:54:52.932Z,101063.00
2018-09-20T18:56:55.934Z,101063.00
2018-09-20T18:59:00.559Z,101061.00
2018-09-20T19:01:03.648Z,101063.00
2018-09-20T19:03:06.667Z,101059.00
2018-09-20T19:05:09.714Z,101060.00
2018-09-20T19:07:14.567Z,101060.00
2018-09-20T19:09:17.601Z,101058.00
2018-09-20T19:11:20.690Z,101066.00
2018-09-20T19:13:23.698Z,101061.00
2018-09-20T19:15:26.668Z,101062.00
2018-09-20T19:17:29.711Z,101058.00
2018-09-20T19:19:32.850Z,101058.00
2018-09-20T19:21:35.858Z,101056.00
2018-09-20T19:23:39.979Z,101058.00
2018-09-20T19:25:44.267Z,101052.00
2018-09-20T19:27:47.260Z,101063.00
2018-09-20T19:29:50.442Z,101059.00
2018-09-20T19:31:53.502Z,101048.00
2018-09-20T19:33:56.586Z,101051.00
2018-09-20T19:35:59.689Z,101051.00
2018-09-20T19:38:02.781Z,101052.00
2018-09-20T19:40:05.977Z,101047.00
2018-09-20T19:42:09.063Z,101047.00
2018-09-20T19:44:13.452Z,101048.00
2018-09-20T19:46:16.490Z,101041.00
2018-09-20T19:48:19.550Z,101043.00
2018-09-20T19:50:22.553Z,101045.00
2018-09-20T19:52:25.599Z,101046.00
2018-09-20T19:54:28.622Z,101044.00
2018-09-20T19:56:31.620Z,101042.00
2018-09-20T19:58:34.640Z,101047.00
2018-09-20T20:00:37.721Z,101046.00
2018-09-20T20:02:40.693Z,101046.00
2018-09-20T20:04:45.545Z,101049.00
2018-09-20T20:06:48.576Z,101045.00
2018-09-20T20:08:51.715Z,101043.00
2018-09-20T20:10:54.797Z,101046.00
2018-09-20T20:12:58.166Z,101045.00
2018-09-20T20:15:01.285Z,101050.00
2018-09-20T20:17:04.554Z,101044.00
2018-09-20T20:19:07.926Z,101048.00
2018-09-20T20:21:10.975Z,101049.00
2018-09-20T20:23:15.129Z,101046.00
2018-09-20T20:25:18.266Z,101041.00
2018-09-20T20:27:21.313Z,101039.00
2018-09-20T20:29:24.288Z,101039.00
2018-09-20T20:31:27.297Z,101037.00
2018-09-20T20:33:30.298Z,101036.00
2018-09-20T20:35:33.329Z,101035.00
2018-09-20T20:37:36.361Z,101029.00
2018-09-20T20:39:39.488Z,101036.00
2018-09-20T20:41:44.077Z,101037.00
2018-09-20T20:43:47.085Z,101033.00
2018-09-20T20:45:50.153Z,101036.00
2018-09-20T20:47:53.179Z,101036.00
2018-09-20T20:49:56.233Z,101032.00
2018-09-20T20:51:59.228Z,101032.00
2018-09-20T20:54:02.259Z,101033.00
2018-09-20T20:56:05.317Z,101029.00
2018-09-20T20:58:08.511Z,101030.00
2018-09-20T21:00:13.653Z,101030.00
2018-09-20T21:02:16.665Z,101030.00
2018-09-20T21:04:19.694Z,101031.00
2018-09-20T21:06:22.777Z,101024.00
2018-09-20T21:08:25.804Z,101024.00
2018-09-20T21:10:28.874Z,101020.00
2018-09-20T21:12:31.909Z,101022.00
2018-09-20T21:14:34.963Z,101018.00
2018-09-20T21:16:38.001Z,101017.00
2018-09-20T21:18:42.616Z,101020.00
2018-09-20T21:20:45.689Z,101020.00
2018-09-20T21:22:48.731Z,101020.00
2018-09-20T21:24:51.761Z,101016.00
2018-09-20T21:26:54.797Z,101019.00
2018-09-20T21:28:57.821Z,101017.00
2018-09-20T21:31:01.042Z,101015.00
2018-09-20T21:33:04.154Z,101017.00
2018-09-20T21:35:07.169Z,101023.00
2018-09-20T21:37:10.247Z,101018.00
2018-09-20T21:39:14.043Z,101014.00
2018-09-20T21:41:17.280Z,101010.00
2018-09-20T21:43:20.279Z,101008.00
2018-09-20T21:45:23.277Z,101010.00
2018-09-20T21:47:26.334Z,101006.00
2018-09-20T21:49:29.357Z,101004.00
2018-09-20T21:51:32.555Z,101004.00
2018-09-20T21:53:35.698Z,101003.00
2018-09-20T21:55:38.714Z,100997.00
2018-09-20T21:57:42.055Z,101000.00
2018-09-20T21:59:45.119Z,100996.00
2018-09-20T22:01:53.856Z,100997.00
2018-09-20T22:03:56.862Z,100992.00
2018-09-20T22:05:59.944Z,100991.00
2018-09-20T22:08:02.952Z,100990.00
2018-09-20T22:10:06.181Z,100991.00
2018-09-20T22:12:09.195Z,100985.00
2018-09-20T22:14:13.639Z,100987.00
2018-09-20T22:16:16.673Z,100980.00
2018-09-20T22:18:19.706Z,100982.00
2018-09-20T22:20:24.117Z,100980.00
2018-09-20T22:22:27.104Z,100975.00
2018-09-20T22:24:30.117Z,100972.00
2018-09-20T22:26:33.192Z,100971.00
2018-09-20T22:28:36.290Z,100969.00
2018-09-20T22:30:39.302Z,100966.00
2018-09-20T22:32:44.005Z,100966.00
2018-09-20T22:34:47.059Z,100962.00
2018-09-20T22:36:50.466Z,100966.00
2018-09-20T22:38:53.478Z,100964.00
2018-09-20T22:40:56.515Z,100964.00
2018-09-20T22:42:59.537Z,100964.00
2018-09-20T22:45:03.278Z,100964.00
2018-09-20T22:47:06.335Z,100957.00
2018-09-20T22:49:09.334Z,100964.00
2018-09-20T22:51:14.170Z,100956.00
2018-09-20T22:53:17.245Z,100958.00
2018-09-20T22:55:20.282Z,100959.00
2018-09-20T22:57:23.262Z,100960.00
2018-09-20T22:59:26.282Z,100959.00
2018-09-20T23:01:29.297Z,100959.00
2018-09-20T23:03:32.286Z,100954.00
2018-09-20T23:05:35.319Z,100961.00
2018-09-20T23:07:38.389Z,100958.00
2018-09-20T23:09:43.360Z,100957.00
2018-09-20T23:11:46.469Z,100960.00
2018-09-20T23:13:49.565Z,100950.00
2018-09-20T23:15:52.567Z,100952.00
2018-09-20T23:17:55.596Z,100951.00
2018-09-20T23:19:58.610Z,100952.00
2018-09-20T23:22:01.626Z,100949.00
2018-09-20T23:24:04.665Z,100945.00
2018-09-20T23:26:07.686Z,100936.00
2018-09-20T23:28:10.680Z,100938.00
2018-09-20T23:30:15.078Z,100938.00
2018-09-20T23:32:18.457Z,100934.00